Time;durP1;ratioP1;P1;durP2;ratioP2;P2;SDS_P1;SDS_P2;PMS_P1;PMS_P2;Temp;Humidity;BMP_temperature;BMP_pressure;BME280_temperature;BME280_humidity;BME280_pressure;Samples;Min_cycle;Max_cycle;Signal;HPM_P1;HPM_P2
2022/10/25 00:00:01;;;;;;;;;64.25;48.00;;;;;12.56;100.00;99649.84;6302156;20;3628422;-67
2022/10/25 00:02:33;;;;;;;;;67.33;50.33;;;;;12.62;100.00;99640.44;6299812;20;3639812;-66
2022/10/25 00:05:03;;;;;;;;;66.67;50.67;;;;;12.64;100.00;99635.81;6271748;20;3622138;-67
2022/10/25 00:07:32;;;;;;;;;67.33;50.67;;;;;12.83;100.00;99633.53;6272864;20;3634053;-67
2022/10/25 00:10:01;;;;;;;;;67.25;49.00;;;;;12.84;100.00;99629.84;6271406;20;4388842;-66
2022/10/25 00:12:31;;;;;;;;;66.75;49.50;;;;;12.82;100.00;99626.44;6301184;20;4389813;-67
2022/10/25 00:15:02;;;;;;;;;65.50;48.75;;;;;12.89;100.00;99625.00;6301542;20;3648174;-67
2022/10/25 00:17:30;;;;;;;;;64.67;49.33;;;;;12.86;100.00;99627.06;6303279;20;3628349;-67
2022/10/25 00:20:00;;;;;;;;;57.25;47.00;;;;;13.01;100.00;99625.09;6267441;20;3616921;-67
2022/10/25 00:22:29;;;;;;;;;67.25;47.00;;;;;13.02;100.00;99619.56;6303873;20;4396169;-67
2022/10/25 00:24:58;;;;;;;;;62.50;46.50;;;;;12.95;100.00;99613.78;6301103;20;4385646;-66
2022/10/25 00:27:28;;;;;;;;;64.50;48.50;;;;;13.00;100.00;99604.50;6300285;20;3635931;-66
2022/10/25 00:29:57;;;;;;;;;61.67;49.00;;;;;13.02;100.00;99613.34;6302735;20;3613821;-67
2022/10/25 00:32:26;;;;;;;;;63.33;47.67;;;;;12.99;100.00;99624.34;6267245;20;3634679;-67
2022/10/25 00:34:56;;;;;;;;;66.00;50.33;;;;;12.97;100.00;99632.53;6263792;20;3616959;-67
2022/10/25 00:37:27;;;;;;;;;64.50;47.75;;;;;12.95;100.00;99640.75;6300430;20;4390922;-66
2022/10/25 00:39:54;;;;;;;;;63.00;47.00;;;;;13.02;100.00;99646.53;6297019;20;1924365;-67
2022/10/25 00:42:26;;;;;;;;;61.50;48.75;;;;;13.05;100.00;99657.09;6270799;20;3632636;-67
2022/10/25 00:45:01;;;;;;;;;64.67;50.00;;;;;13.06;100.00;99655.25;6302522;20;3624007;-67
2022/10/25 00:48:02;;;;;;;;;64.00;50.25;;;;;13.07;100.00;99649.75;6272315;20;3630550;-67
2022/10/25 00:50:49;;;;;;;;;69.75;49.00;;;;;13.04;100.00;99638.34;6300876;20;4407599;-67
2022/10/25 00:53:31;;;;;;;;;61.75;47.50;;;;;13.11;100.00;99639.59;6302526;20;3641454;-66
2022/10/25 00:56:21;;;;;;;;;67.00;50.00;;;;;13.08;100.00;99640.69;6303208;20;3636762;-67
2022/10/25 00:58:58;;;;;;;;;63.25;47.00;;;;;13.02;100.00;99640.28;6298305;20;4385657;-67
2022/10/25 01:01:28;;;;;;;;;63.67;48.67;;;;;13.08;100.00;99645.22;6298135;20;3615926;-67
2022/10/25 01:04:04;;;;;;;;;62.50;46.50;;;;;13.05;100.00;99653.53;6269530;20;4392117;-67
2022/10/25 01:06:51;;;;;;;;;63.33;48.33;;;;;12.98;100.00;99655.81;6298439;20;3617996;-67
2022/10/25 01:09:26;;;;;;;;;63.00;47.00;;;;;13.04;100.00;99659.91;6271777;20;4388919;-67
2022/10/25 01:11:56;;;;;;;;;60.00;45.75;;;;;13.10;100.00;99662.16;6298137;20;3637884;-67
2022/10/25 01:14:26;;;;;;;;;64.25;47.50;;;;;13.06;100.00;99647.16;6299432;20;4392018;-67
2022/10/25 01:17:26;;;;;;;;;59.25;44.75;;;;;13.11;100.00;99651.28;6300259;20;3639023;-67
2022/10/25 01:20:40;;;;;;;;;61.33;48.00;;;;;13.08;100.00;99653.31;6299601;20;3607668;-67
2022/10/25 01:23:58;;;;;;;;;59.67;47.33;;;;;13.13;100.00;99654.69;6268766;20;3619141;-67
2022/10/25 01:27:10;;;;;;;;;62.50;45.75;;;;;13.14;100.00;99655.56;6274423;20;4393084;-67
2022/10/25 01:30:07;;;;;;;;;57.33;44.33;;;;;13.18;100.00;99663.31;6306691;20;3620062;-67
2022/10/25 01:33:30;;;;;;;;;57.67;46.00;;;;;13.09;100.00;99658.59;6272403;20;3631629;-67
2022/10/25 01:36:55;;;;;;;;;62.25;45.75;;;;;13.09;100.00;99663.13;6299236;20;4401247;-67
2022/10/25 01:39:59;;;;;;;;;61.00;47.00;;;;;13.16;100.00;99664.38;6308848;20;4373212;-67
2022/10/25 01:43:08;;;;;;;;;65.00;48.00;;;;;13.08;100.00;99661.41;6299131;20;1923161;-67
2022/10/25 01:45:50;;;;;;;;;61.25;45.75;;;;;13.15;100.00;99665.38;6273935;20;3637891;-67
2022/10/25 01:48:35;;;;;;;;;59.00;45.33;;;;;13.13;100.00;99659.22;6304463;20;3623180;-67
2022/10/25 01:51:11;;;;;;;;;60.67;46.33;;;;;13.24;100.00;99656.59;6269587;20;3634644;-68
2022/10/25 01:53:47;;;;;;;;;64.50;47.50;;;;;13.20;100.00;99659.66;6302331;20;3636843;-67
2022/10/25 01:56:33;;;;;;;;;67.00;49.00;;;;;13.15;100.00;99659.97;6305524;20;4377329;-67
2022/10/25 01:59:29;;;;;;;;;67.25;50.75;;;;;13.16;100.00;99659.00;6305030;20;4376272;-67
2022/10/25 02:02:17;;;;;;;;;59.67;46.67;;;;;13.25;100.00;99663.72;6307195;20;3618091;-66
2022/10/25 02:05:16;;;;;;;;;65.00;49.67;;;;;13.27;100.00;99651.03;6268693;20;3636753;-67
2022/10/25 02:08:34;;;;;;;;;58.33;43.67;;;;;13.27;100.00;99655.53;6270871;20;3637772;-67
2022/10/25 02:11:27;;;;;;;;;66.33;49.00;;;;;13.30;100.00;99667.00;6265910;20;3634671;-68
2022/10/25 02:14:26;;;;;;;;;65.00;49.00;;;;;13.32;100.00;99662.34;6302126;20;3621292;-67
2022/10/25 02:17:22;;;;;;;;;66.50;49.25;;;;;13.34;100.00;99664.91;6271715;20;3637999;-68
2022/10/25 02:19:58;;;;;;;;;64.75;47.75;;;;;13.40;100.00;99664.47;6301687;20;4388799;-67
2022/10/25 02:22:32;;;;;;;;;66.00;50.00;;;;;13.42;100.00;99658.97;6302148;20;3601328;-67
2022/10/25 02:25:01;;;;;;;;;68.50;51.75;;;;;13.44;100.00;99651.63;6275653;20;3629418;-67
2022/10/25 02:27:33;;;;;;;;;69.67;51.33;;;;;13.46;100.00;99655.06;6301870;20;3626525;-67
2022/10/25 02:30:02;;;;;;;;;63.67;48.33;;;;;13.33;100.00;99650.59;6306139;20;3614895;-67
2022/10/25 02:32:33;;;;;;;;;66.00;48.25;;;;;13.43;100.00;99666.06;6269886;20;4404487;-68
2022/10/25 02:35:03;;;;;;;;;55.00;41.67;;;;;13.41;100.00;99670.75;6301867;20;3630533;-67
2022/10/25 02:37:33;;;;;;;;;64.00;44.00;;;;;13.46;100.00;99672.13;6302237;20;3658816;-68
2022/10/25 02:40:03;;;;;;;;;67.00;47.33;;;;;13.44;100.00;99657.03;6270301;20;3656550;-68
2022/10/25 02:42:33;;;;;;;;;59.67;46.33;;;;;13.46;100.00;99664.03;6271045;20;3598317;-68
2022/10/25 02:45:02;;;;;;;;;61.00;46.00;;;;;13.50;100.00;99664.66;6306467;20;3634681;-67
2022/10/25 02:47:32;;;;;;;;;63.00;46.75;;;;;13.41;100.00;99663.50;6305148;20;4396269;-68
2022/10/25 02:50:05;;;;;;;;;59.25;45.25;;;;;13.51;100.00;99675.34;6305716;20;3643194;-68
2022/10/25 02:52:34;;;;;;;;;58.75;44.50;;;;;13.53;100.00;99672.50;6309533;20;3630622;-67
2022/10/25 02:55:05;;;;;;;;;63.00;46.25;;;;;13.51;100.00;99669.09;6305703;20;3633588;-68
2022/10/25 02:57:37;;;;;;;;;67.50;47.50;;;;;13.57;100.00;99663.22;6302035;20;1921099;-69
2022/10/25 03:00:08;;;;;;;;;59.33;45.67;;;;;13.63;100.00;99665.47;6273547;20;3617015;-68
2022/10/25 03:02:37;;;;;;;;;61.00;45.00;;;;;13.51;100.00;99658.31;6274553;20;4402447;-69
2022/10/25 03:05:07;;;;;;;;;57.25;44.00;;;;;13.55;100.00;99666.03;6304955;20;3630794;-68
2022/10/25 03:07:36;;;;;;;;;56.25;44.75;;;;;13.66;100.00;99662.53;6306306;20;4362803;-68
2022/10/25 03:10:07;;;;;;;;;56.50;42.00;;;;;13.49;100.00;99671.03;6304038;20;3643398;-67
2022/10/25 03:12:35;;;;;;;;;63.67;49.00;;;;;13.50;100.00;99651.16;6305299;20;3632677;-67
2022/10/25 03:15:08;;;;;;;;;119.33;100.78;;;;;13.55;100.00;99665.16;6263915;20;3709639;-68
2022/10/25 03:17:36;;;;;;;;;101.00;84.00;;;;;13.48;100.00;99663.91;6265353;20;1929474;-68
2022/10/25 03:20:07;;;;;;;;;91.33;80.33;;;;;13.49;100.00;99650.31;6271214;20;3674272;-68
2022/10/25 03:22:35;;;;;;;;;101.50;81.00;;;;;13.22;100.00;99652.28;6295563;20;1933825;-67
2022/10/25 03:25:06;;;;;;;;;88.75;72.50;;;;;13.34;100.00;99644.19;6271355;20;3680550;-68
2022/10/25 03:27:37;;;;;;;;;83.00;69.00;;;;;13.12;100.00;99642.19;6271193;20;4415859;-67
2022/10/25 03:30:07;;;;;;;;;81.50;63.50;;;;;13.00;100.00;99643.06;6304495;20;4403406;-68
2022/10/25 03:32:35;;;;;;;;;80.50;67.00;;;;;13.07;100.00;99657.00;6299935;20;1921247;-67
2022/10/25 03:35:04;;;;;;;;;83.00;66.00;;;;;13.00;100.00;99655.69;6263511;20;1932613;-68
2022/10/25 03:37:31;;;;;;;;;81.50;65.00;;;;;12.99;100.00;99652.16;6269841;20;1920086;-67
2022/10/25 03:40:05;;;;;;;;;80.67;62.67;;;;;12.89;100.00;99668.09;6272343;20;3647599;-68
2022/10/25 03:42:35;;;;;;;;;73.75;52.75;;;;;12.84;100.00;99670.25;6265228;20;3651327;-68
2022/10/25 03:45:04;;;;;;;;;68.00;53.33;;;;;12.86;100.00;99673.72;6303752;20;3617048;-68
2022/10/25 03:47:34;;;;;;;;;55.33;45.33;;;;;12.87;100.00;99670.03;6269079;20;3623184;-68
2022/10/25 03:50:04;;;;;;;;;59.67;46.00;;;;;12.95;100.00;99670.38;6300272;20;3625286;-67
2022/10/25 03:52:34;;;;;;;;;63.25;47.00;;;;;13.13;100.00;99657.38;6263205;20;3624399;-67
2022/10/25 03:55:04;;;;;;;;;60.00;45.25;;;;;13.11;100.00;99645.88;6305606;20;3633632;-67
2022/10/25 03:57:34;;;;;;;;;63.50;46.25;;;;;13.14;100.00;99661.81;6303741;20;4399168;-67
2022/10/25 04:00:04;;;;;;;;;56.33;44.00;;;;;13.17;100.00;99666.13;6304620;20;3634422;-68
2022/10/25 04:02:34;;;;;;;;;55.67;44.33;;;;;13.17;100.00;99667.00;6269295;20;3631916;-68
2022/10/25 04:05:04;;;;;;;;;52.67;40.67;;;;;12.95;100.00;99651.53;6305087;20;3615897;-67
2022/10/25 04:07:32;;;;;;;;;51.00;39.67;;;;;13.12;100.00;99679.09;6274377;20;3620050;-67
2022/10/25 04:10:03;;;;;;;;;54.00;41.33;;;;;13.09;100.00;99687.41;6270645;20;3628369;-68
2022/10/25 04:12:32;;;;;;;;;58.00;41.00;;;;;13.02;100.00;99694.19;6301660;20;4396116;-68
2022/10/25 04:15:01;;;;;;;;;51.00;40.00;;;;;12.95;100.00;99688.34;6306585;20;3621098;-68
2022/10/25 04:17:30;;;;;;;;;50.00;40.67;;;;;12.98;100.00;99681.88;6271274;20;3609614;-67
2022/10/25 04:20:00;;;;;;;;;53.00;39.33;;;;;12.94;100.00;99676.72;6299451;20;3638899;-67
2022/10/25 04:22:28;;;;;;;;;48.00;40.00;;;;;12.89;100.00;99668.09;6303091;20;3604567;-67
2022/10/25 04:24:58;;;;;;;;;51.33;40.00;;;;;12.96;100.00;99669.41;6269285;20;2859936;-67
2022/10/25 04:27:26;;;;;;;;;50.67;39.00;;;;;13.02;100.00;99664.53;6299681;20;3622353;-67
2022/10/25 04:29:55;;;;;;;;;44.33;36.00;;;;;12.80;100.00;99663.38;6271193;20;3600332;-67
2022/10/25 04:32:24;;;;;;;;;51.00;38.00;;;;;12.70;100.00;99667.69;6271573;20;2864962;-67
2022/10/25 04:34:53;;;;;;;;;52.67;39.33;;;;;12.66;100.00;99666.19;6297730;20;3624297;-67
2022/10/25 04:37:22;;;;;;;;;53.33;38.67;;;;;12.72;100.00;99660.38;6273593;20;3610662;-67
2022/10/25 04:39:51;;;;;;;;;50.00;36.00;;;;;12.68;100.00;99669.63;6270353;20;2875345;-67
2022/10/25 04:42:20;;;;;;;;;44.00;37.67;;;;;12.61;100.00;99668.34;6303530;20;3590840;-67
2022/10/25 04:44:49;;;;;;;;;46.67;37.00;;;;;12.48;100.00;99654.88;6272753;20;2860765;-67
2022/10/25 04:47:18;;;;;;;;;50.25;37.00;;;;;12.58;100.00;99668.56;6306398;20;3626487;-67
2022/10/25 04:49:48;;;;;;;;;52.33;41.67;;;;;12.67;100.00;99659.84;6299374;20;3621113;-68
2022/10/25 04:52:18;;;;;;;;;48.33;40.00;;;;;12.60;100.00;99656.69;6305134;20;3602430;-67
2022/10/25 04:54:46;;;;;;;;;43.33;37.67;;;;;12.76;100.00;99669.94;6273149;20;3587845;-67
2022/10/25 04:57:16;;;;;;;;;49.67;37.00;;;;;12.80;100.00;99663.38;6267902;20;3632636;-67
2022/10/25 04:59:44;;;;;;;;;46.00;37.00;;;;;12.74;100.00;99659.31;6300755;20;2850264;-67
2022/10/25 05:02:14;;;;;;;;;49.33;36.33;;;;;12.77;100.00;99665.41;6273684;20;3598200;-67
2022/10/25 05:04:43;;;;;;;;;45.33;35.33;;;;;12.70;100.00;99673.09;6274496;20;3604427;-67
2022/10/25 05:07:11;;;;;;;;;5.00;0.00;;;;;12.58;100.00;99677.50;6294546;20;1806713;-67
2022/10/25 05:09:40;;;;;;;;;45.00;35.00;;;;;12.55;100.00;99671.47;6307561;20;3598142;-67
2022/10/25 05:12:15;;;;;;;;;43.67;36.33;;;;;12.50;100.00;99682.56;6275296;20;3597143;-67
2022/10/25 05:14:44;;;;;;;;;43.33;33.33;;;;;12.57;100.00;99683.00;6272176;20;3595066;-68
2022/10/25 05:17:13;;;;;;;;;45.67;35.00;;;;;12.50;100.00;99672.63;6305930;20;3599363;-67
2022/10/25 05:19:41;;;;;;;;;46.00;34.33;;;;;12.59;100.00;99681.06;6275789;20;3605488;-67
2022/10/25 05:22:10;;;;;;;;;46.67;37.67;;;;;12.76;100.00;99672.66;6275112;20;3585804;-67
2022/10/25 05:24:39;;;;;;;;;44.00;35.67;;;;;12.81;100.00;99664.25;6276844;20;2851311;-68
2022/10/25 05:27:09;;;;;;;;;35.75;30.75;;;;;12.91;100.00;99676.94;6308165;20;3612870;-68
2022/10/25 05:29:38;;;;;;;;;41.25;30.50;;;;;12.88;100.00;99677.16;6310970;20;3628436;-67
2022/10/25 05:32:07;;;;;;;;;34.33;29.33;;;;;12.96;100.00;99680.19;6304171;20;3603621;-67
2022/10/25 05:34:36;;;;;;;;;40.50;32.00;;;;;13.05;100.00;99683.19;6276576;20;3628501;-68
2022/10/25 05:37:05;;;;;;;;;32.00;29.00;;;;;13.10;100.00;99683.72;6300434;20;3600360;-67
2022/10/25 05:39:34;;;;;;;;;31.67;27.00;;;;;13.06;100.00;99687.59;6270646;20;3604431;-68
2022/10/25 05:42:05;;;;;;;;;31.00;25.33;;;;;13.06;100.00;99690.28;6307656;20;3571270;-68
2022/10/25 05:44:33;;;;;;;;;24.50;23.50;;;;;13.12;100.00;99684.47;6270797;20;2847197;-67
2022/10/25 05:47:03;;;;;;;;;33.00;29.33;;;;;13.10;100.00;99698.03;6270223;20;2845541;-67
2022/10/25 05:49:38;;;;;;;;;39.75;29.50;;;;;13.08;100.00;99697.28;6306199;20;3620178;-67
2022/10/25 05:52:07;;;;;;;;;29.67;27.67;;;;;13.16;100.00;99707.53;6305213;20;3587791;-68
2022/10/25 05:54:35;;;;;;;;;29.33;27.00;;;;;13.14;100.00;99720.28;6272455;20;3594018;-68
2022/10/25 05:57:05;;;;;;;;;34.67;28.33;;;;;13.15;100.00;99722.00;6273716;20;3613787;-69
2022/10/25 05:59:34;;;;;;;;;31.00;27.67;;;;;13.00;100.00;99728.47;6309163;20;3597136;-68
2022/10/25 06:02:02;;;;;;;;;35.33;25.33;;;;;13.03;100.00;99744.41;6273371;20;3609644;-68
2022/10/25 06:04:31;;;;;;;;;35.33;30.00;;;;;13.05;100.00;99753.25;6269274;20;3607745;-67
2022/10/25 06:07:00;;;;;;;;;36.33;32.67;;;;;12.99;100.00;99764.50;6274390;20;3587797;-67
2022/10/25 06:09:28;;;;;;;;;39.33;31.00;;;;;12.98;100.00;99771.72;6273839;20;3608659;-68
2022/10/25 06:11:57;;;;;;;;;40.67;32.33;;;;;13.05;100.00;99782.91;6272510;20;3587799;-68
2022/10/25 06:14:25;;;;;;;;;35.33;31.33;;;;;13.10;100.00;99791.53;6276725;20;3612741;-67
2022/10/25 06:16:55;;;;;;;;;30.00;27.00;;;;;13.21;100.00;99807.81;6273673;20;2848335;-68
2022/10/25 06:19:23;;;;;;;;;28.00;24.67;;;;;13.37;100.00;99803.09;6304237;20;3566985;-68
2022/10/25 06:21:58;;;;;;;;;28.67;25.00;;;;;13.29;100.00;99805.47;6306175;20;3566359;-68
2022/10/25 06:24:32;;;;;;;;;30.67;27.00;;;;;13.41;100.00;99800.19;6272304;20;3579556;-68
2022/10/25 06:27:12;;;;;;;;;28.67;24.33;;;;;13.44;100.00;99803.53;6276417;20;3582774;-69
2022/10/25 06:29:54;;;;;;;;;30.00;24.00;;;;;13.49;100.00;99800.50;6271070;20;2853990;-68
2022/10/25 06:32:30;;;;;;;;;33.00;30.33;;;;;13.42;100.00;99794.66;6306402;20;3606557;-69
2022/10/25 06:34:59;;;;;;;;;38.33;30.00;;;;;13.41;100.00;99797.50;6270380;20;3598452;-67
2022/10/25 06:37:29;;;;;;;;;37.00;30.00;;;;;13.50;100.00;99810.31;6270641;20;3622205;-67
2022/10/25 06:40:00;;;;;;;;;39.00;33.00;;;;;13.55;100.00;99816.25;6270460;20;2853841;-69
2022/10/25 06:42:29;;;;;;;;;43.67;33.00;;;;;13.61;100.00;99815.78;6304158;20;3589879;-68
2022/10/25 06:44:57;;;;;;;;;31.67;30.67;;;;;13.57;100.00;99830.50;6272110;20;3595110;-67
2022/10/25 06:47:27;;;;;;;;;33.67;30.33;;;;;13.63;100.00;99839.97;6269117;20;3575497;-68
2022/10/25 06:49:55;;;;;;;;;38.00;32.00;;;;;13.65;100.00;99833.50;6302649;20;3600332;-68
2022/10/25 06:52:24;;;;;;;;;38.00;34.00;;;;;13.58;100.00;99821.41;6272847;20;3581564;-67
2022/10/25 06:54:52;;;;;;;;;37.33;32.00;;;;;13.77;100.00;99845.22;6274976;20;3595108;-69
2022/10/25 06:57:21;;;;;;;;;40.00;34.67;;;;;13.74;100.00;99853.53;6272567;20;3596331;-67
2022/10/25 06:59:50;;;;;;;;;35.33;29.67;;;;;13.87;100.00;99853.53;6273365;20;3612784;-69
2022/10/25 07:02:21;;;;;;;;;36.50;30.75;;;;;13.76;100.00;99847.06;6272786;20;3623329;-69
2022/10/25 07:04:49;;;;;;;;;33.33;32.00;;;;;13.84;100.00;99849.22;6306162;20;3599236;-68
2022/10/25 07:07:21;;;;;;;;;39.33;31.33;;;;;14.04;100.00;99832.44;6271737;20;3591012;-68
2022/10/25 07:09:51;;;;;;;;;41.33;32.33;;;;;13.96;100.00;99821.34;6270727;20;2858635;-68
2022/10/25 07:12:26;;;;;;;;;37.33;32.00;;;;;14.05;100.00;99817.94;6299797;20;3575359;-67
2022/10/25 07:14:55;;;;;;;;;42.50;34.00;;;;;14.21;100.00;99814.97;6269491;20;2851370;-67
2022/10/25 07:17:24;;;;;;;;;39.67;32.67;;;;;14.07;100.00;99817.84;6272210;20;3590973;-67
2022/10/25 07:19:56;;;;;;;;;40.00;33.33;;;;;14.01;100.00;99821.84;6265827;20;3600243;-69
2022/10/25 07:22:30;;;;;;;;;37.67;31.33;;;;;13.98;100.00;99818.50;6303705;20;3591972;-67
2022/10/25 07:25:00;;;;;;;;;32.00;25.67;;;;;14.12;100.00;99829.16;6270584;20;2845082;-69
2022/10/25 07:27:32;;;;;;;;;31.67;26.00;;;;;14.14;100.00;99812.84;6302225;20;3603430;-70
2022/10/25 07:30:01;;;;;;;;;33.25;29.00;;;;;14.27;100.00;99819.94;6274433;20;3609651;-69
2022/10/25 07:32:30;;;;;;;;;34.25;28.50;;;;;14.20;100.00;99818.66;6304818;20;3609663;-67
2022/10/25 07:34:59;;;;;;;;;39.67;31.00;;;;;14.35;100.00;99815.75;6302221;20;3590964;-67
2022/10/25 07:37:28;;;;;;;;;36.67;31.00;;;;;14.27;100.00;99811.81;6268202;20;3602676;-67
2022/10/25 07:39:58;;;;;;;;;28.00;25.00;;;;;14.35;100.00;99811.25;6266387;20;2841053;-67
2022/10/25 07:42:27;;;;;;;;;35.67;30.33;;;;;14.46;100.00;99807.72;6302960;20;3604463;-70
2022/10/25 07:44:58;;;;;;;;;23.67;22.00;;;;;14.48;100.00;99821.97;6263157;20;3581561;-67
2022/10/25 07:47:27;;;;;;;;;32.50;30.50;;;;;14.52;100.00;99822.63;6269429;20;2844271;-68
2022/10/25 07:49:59;;;;;;;;;31.33;29.00;;;;;14.55;100.00;99823.25;6275602;20;3614897;-67
2022/10/25 07:52:27;;;;;;;;;34.33;26.33;;;;;14.57;100.00;99826.72;6273196;20;3591923;-67
2022/10/25 07:54:56;;;;;;;;;29.00;28.67;;;;;14.63;100.00;99831.66;6271887;20;3603559;-68
2022/10/25 07:57:26;;;;;;;;;38.00;27.50;;;;;14.53;100.00;99833.31;6275159;20;3622244;-70
2022/10/25 07:59:55;;;;;;;;;36.00;30.00;;;;;14.63;100.00;99831.66;6303129;20;3608597;-70
2022/10/25 08:02:24;;;;;;;;;27.67;27.00;;;;;14.77;100.00;99843.25;6303825;20;3573339;-69
2022/10/25 08:04:54;;;;;;;;;38.50;29.75;;;;;14.74;100.00;99833.53;6271211;20;4379555;-70
2022/10/25 08:07:26;;;;;;;;;44.33;33.00;;;;;14.96;100.00;99848.13;6304859;20;3613928;-67
2022/10/25 08:09:55;;;;;;;;;44.00;34.00;;;;;14.78;100.00;99845.00;6274412;20;3587879;-70
2022/10/25 08:12:27;;;;;;;;;44.67;36.33;;;;;14.84;100.00;99839.94;6268617;20;2856584;-70
2022/10/25 08:14:56;;;;;;;;;50.67;40.33;;;;;15.09;100.00;99843.50;6302466;20;3604464;-70
2022/10/25 08:17:24;;;;;;;;;39.00;33.00;;;;;15.04;100.00;99841.13;6272838;20;3591985;-67
2022/10/25 08:19:53;;;;;;;;;33.33;29.00;;;;;15.07;100.00;99840.88;6271180;20;3615903;-67
2022/10/25 08:22:21;;;;;;;;;32.00;27.67;;;;;15.14;100.00;99835.88;6271159;20;3606601;-68
2022/10/25 08:24:50;;;;;;;;;33.00;30.00;;;;;15.26;100.00;99850.28;6269994;20;3584760;-67
2022/10/25 08:27:19;;;;;;;;;30.33;29.33;;;;;15.29;100.00;99844.63;6275745;20;3597219;-68
2022/10/25 08:29:47;;;;;;;;;38.33;31.67;;;;;15.32;100.00;99852.47;6269797;20;3607710;-68
2022/10/25 08:32:16;;;;;;;;;37.33;34.00;;;;;15.39;100.00;99861.84;6270494;20;3588865;-68
2022/10/25 08:34:45;;;;;;;;;30.33;26.00;;;;;15.39;100.00;99861.00;6270631;20;3591935;-70
2022/10/25 08:37:13;;;;;;;;;37.33;32.00;;;;;15.19;100.00;99854.44;6270646;20;3611835;-70
2022/10/25 08:39:43;;;;;;;;;45.33;33.33;;;;;15.23;100.00;99866.75;6270451;20;3605581;-69
2022/10/25 08:42:59;;;;;;;;;46.67;38.67;;;;;15.22;100.00;99854.19;6275071;20;3584639;-69
2022/10/25 08:45:37;;;;;;;;;24.33;21.33;;;;;15.30;100.00;99857.19;6267333;20;3579479;-67
2022/10/25 08:48:15;;;;;;;;;32.67;30.00;;;;;15.39;100.00;99861.00;6269251;20;3616958;-68
2022/10/25 08:50:55;;;;;;;;;25.33;22.00;;;;;15.37;100.00;99863.81;6274208;20;3591939;-68
2022/10/25 08:53:40;;;;;;;;;39.00;33.00;;;;;15.50;100.00;99858.28;6272127;20;3477369;-68
2022/10/25 08:56:16;;;;;;;;;36.00;31.67;;;;;15.69;100.00;99868.53;6302020;20;3579470;-66
2022/10/25 08:59:00;;;;;;;;;26.67;23.67;;;;;15.61;100.00;99873.69;6267992;20;2856664;-66
2022/10/25 09:01:43;;;;;;;;;24.00;23.00;;;;;15.63;100.00;99869.00;6301564;20;3571875;-68
2022/10/25 09:04:14;;;;;;;;;27.50;20.00;;;;;15.68;100.00;99861.38;6263283;20;2844054;-68
2022/10/25 09:07:32;;;;;;;;;17.50;15.00;;;;;15.67;100.00;99865.94;6270192;20;2485720;-68
2022/10/25 09:10:47;;;;;;;;;14.00;12.00;;;;;15.71;100.00;99867.44;6271505;20;3522106;-69
2022/10/25 09:13:34;;;;;;;;;17.50;16.50;;;;;15.78;100.00;99871.38;6265981;20;2827395;-67
2022/10/25 09:16:32;;;;;;;;;18.00;16.00;;;;;15.76;100.00;99869.78;6265152;20;2831562;-67
2022/10/25 09:19:17;;;;;;;;;17.00;16.00;;;;;15.74;100.00;99887.97;6267897;20;2489949;-67
2022/10/25 09:22:01;;;;;;;;;18.00;16.00;;;;;15.81;100.00;99889.22;6266019;20;2829633;-68
2022/10/25 09:25:01;;;;;;;;;18.33;18.33;;;;;15.85;100.00;99896.13;6268413;20;2825558;-67
2022/10/25 09:27:45;;;;;;;;;12.67;12.67;;;;;15.81;100.00;99897.34;6300241;20;2796152;-68
2022/10/25 09:30:17;;;;;;;;;19.00;17.67;;;;;16.04;100.00;99889.22;6302470;20;3560680;-69
2022/10/25 09:32:56;;;;;;;;;14.00;13.50;;;;;16.09;100.00;99892.41;6297103;20;2801388;-66
2022/10/25 09:35:48;;;;;;;;;15.00;14.00;;;;;15.98;100.00;99895.97;6265428;20;2483642;-68
2022/10/25 09:38:54;;;;;;;;;18.67;14.33;;;;;16.04;100.00;99894.66;6269178;20;3535812;-67
2022/10/25 09:41:52;;;;;;;;;12.33;12.33;;;;;16.12;100.00;99894.88;6267429;20;2796209;-69
2022/10/25 09:44:51;;;;;;;;;16.50;14.00;;;;;16.20;100.00;99895.13;6297348;20;2814903;-68
2022/10/25 09:47:44;;;;;;;;;14.00;14.00;;;;;15.97;100.00;99900.53;6271516;20;2798204;-68
2022/10/25 09:50:31;;;;;;;;;15.00;14.00;;;;;16.09;100.00;99893.28;6274626;20;2792069;-67
2022/10/25 09:53:39;;;;;;;;;15.00;13.33;;;;;16.09;100.00;99898.69;6272903;20;3521170;-68
2022/10/25 09:56:06;;;;;;;;;17.50;13.00;;;;;15.78;100.00;99884.91;6303306;20;2489971;-69
2022/10/25 09:58:46;;;;;;;;;13.33;12.00;;;;;15.91;100.00;99873.97;6270276;20;3520176;-66
2022/10/25 10:01:24;;;;;;;;;16.00;14.00;;;;;15.92;100.00;99878.38;6271709;20;2492001;-66
2022/10/25 10:04:23;;;;;;;;;11.33;11.33;;;;;16.01;100.00;99884.94;6271086;20;3516928;-67
2022/10/25 10:07:06;;;;;;;;;16.33;15.00;;;;;16.14;100.00;99879.34;6306157;20;3546102;-67
2022/10/25 10:09:38;;;;;;;;;18.00;16.50;;;;;16.17;100.00;99884.53;6303560;20;2831609;-70
2022/10/25 10:12:53;;;;;;;;;19.50;18.50;;;;;16.17;100.00;99892.66;6272036;20;2834683;-68
2022/10/25 10:15:34;;;;;;;;;17.00;17.00;;;;;15.87;100.00;99898.69;6273390;20;2828514;-66
2022/10/25 10:18:34;;;;;;;;;21.00;18.00;;;;;15.90;100.00;99904.72;6272306;20;2487782;-68
2022/10/25 10:21:13;;;;;;;;;18.33;18.33;;;;;15.87;100.00;99910.38;6277067;20;3560768;-68
2022/10/25 10:23:52;;;;;;;;;16.00;15.00;;;;;15.92;100.00;99908.16;6308012;20;3537940;-69
2022/10/25 10:26:47;;;;;;;;;19.00;17.33;;;;;15.96;100.00;99906.97;6301109;20;3575258;-68
2022/10/25 10:29:30;;;;;;;;;11.00;9.50;;;;;15.91;100.00;99900.19;6276258;20;2783843;-67
2022/10/25 10:32:21;;;;;;;;;18.00;17.50;;;;;15.96;100.00;99901.53;6274196;20;2829486;-66
2022/10/25 10:35:01;;;;;;;;;17.00;16.00;;;;;15.73;100.00;99892.53;6272122;20;3547308;-70
2022/10/25 10:37:33;;;;;;;;;16.00;14.33;;;;;15.86;100.00;99903.25;6269226;20;3536807;-69
2022/10/25 10:40:06;;;;;;;;;22.50;19.00;;;;;15.89;100.00;99900.31;6304895;20;2835972;-68
2022/10/25 10:42:38;;;;;;;;;18.50;17.00;;;;;15.84;100.00;99910.63;6275020;20;2817031;-66
2022/10/25 10:45:07;;;;;;;;;22.50;18.00;;;;;15.77;100.00;99915.69;6271873;20;2835683;-69
2022/10/25 10:47:47;;;;;;;;;21.00;17.33;;;;;15.82;100.00;99907.19;6275756;20;3575296;-68
2022/10/25 10:50:21;;;;;;;;;19.67;18.00;;;;;15.81;100.00;99902.75;6276241;20;3571100;-69
2022/10/25 10:53:28;;;;;;;;;18.50;18.50;;;;;15.74;100.00;99906.94;6274219;20;2829635;-68
2022/10/25 10:56:04;;;;;;;;;19.00;18.50;;;;;15.89;100.00;99905.72;6270483;20;2829545;-68
2022/10/25 10:58:41;;;;;;;;;15.00;14.00;;;;;15.91;100.00;99894.78;6270880;20;2817223;-68
2022/10/25 11:01:16;;;;;;;;;51.25;35.75;;;;;16.08;100.00;99894.25;6273037;20;3631655;-67
2022/10/25 11:03:48;;;;;;;;;41.67;34.33;;;;;16.19;100.00;99909.63;6299495;20;3600274;-66
2022/10/25 11:06:33;;;;;;;;;21.00;20.00;;;;;15.94;100.00;99911.63;6266624;20;2830766;-67
2022/10/25 11:09:16;;;;;;;;;34.00;27.00;;;;;16.05;100.00;99904.47;6272893;20;3616958;-66
2022/10/25 11:12:08;;;;;;;;;20.33;18.33;;;;;16.07;100.00;99899.81;6267129;20;2839928;-67
2022/10/25 11:14:38;;;;;;;;;33.33;25.33;;;;;16.58;99.75;99899.22;6304575;20;3606530;-68
2022/10/25 11:17:25;;;;;;;;;20.00;19.00;;;;;16.71;99.33;99904.47;6270436;20;2835703;-67
2022/10/25 11:20:57;;;;;;;;;18.67;18.67;;;;;16.59;98.19;99909.09;6270203;20;3573170;-68
2022/10/25 11:24:19;;;;;;;;;17.00;17.00;;;;;16.53;98.28;99902.28;6266123;20;3564904;-68
2022/10/25 11:27:05;;;;;;;;;13.33;13.00;;;;;16.50;97.28;99904.41;6294773;20;3515877;-67
2022/10/25 11:30:09;;;;;;;;;18.33;17.33;;;;;16.42;96.80;99895.06;6304740;20;3556630;-67
2022/10/25 11:32:55;;;;;;;;;13.50;13.50;;;;;16.69;96.18;99899.16;6299896;20;2790132;-68
2022/10/25 11:36:12;;;;;;;;;15.67;15.00;;;;;16.73;96.06;99902.50;6302475;20;3543078;-67